Time;durP1;ratioP1;P1;durP2;ratioP2;P2;SDS_P1;SDS_P2;PMS_P1;PMS_P2;Temp;Humidity;BMP_temperature;BMP_pressure;BME280_temperature;BME280_humidity;BME280_pressure;Samples;Min_cycle;Max_cycle;Signal;HPM_P1;HPM_P2
2021/03/27 00:00:16;;;;;;;9.75;5.82;;;10.60;99.90;;;;;;4957296;28;20490;-83
2021/03/27 00:02:58;;;;;;;10.52;6.00;;;10.50;99.90;;;;;;4957433;28;20034;-84
2021/03/27 00:05:28;;;;;;;7.68;4.55;;;10.50;99.90;;;;;;4957330;28;20030;-83
2021/03/27 00:08:18;;;;;;;9.50;4.82;;;10.50;99.90;;;;;;4957299;28;20386;-83
2021/03/27 00:10:56;;;;;;;8.70;4.63;;;10.50;99.90;;;;;;4957425;28;20447;-83
2021/03/27 00:13:35;;;;;;;9.15;5.43;;;10.50;99.90;;;;;;4957265;28;20023;-83
2021/03/27 00:16:10;;;;;;;7.22;4.93;;;10.50;99.90;;;;;;4957229;28;20229;-84
2021/03/27 00:18:46;;;;;;;8.98;5.20;;;10.50;99.90;;;;;;4974442;28;20566;-83
2021/03/27 00:21:27;;;;;;;9.38;5.05;;;10.40;99.90;;;;;;4957225;28;20563;-83
2021/03/27 00:24:01;;;;;;;8.30;5.00;;;10.40;99.90;;;;;;4957748;28;20035;-82
2021/03/27 00:26:43;;;;;;;5.18;4.03;;;10.30;99.90;;;;;;4974861;28;20081;-83
2021/03/27 00:29:24;;;;;;;8.27;5.30;;;10.20;99.90;;;;;;4976384;28;20043;-84
2021/03/27 00:31:57;;;;;;;9.82;4.90;;;10.20;99.90;;;;;;4961039;28;20023;-82
2021/03/27 00:34:30;;;;;;;8.57;4.50;;;10.10;99.90;;;;;;4961065;28;20030;-83
2021/03/27 00:37:00;;;;;;;7.30;4.30;;;10.10;99.90;;;;;;4961040;28;20100;-83
2021/03/27 00:39:52;;;;;;;8.07;4.60;;;10.10;99.90;;;;;;4978485;28;20047;-84
2021/03/27 00:42:25;;;;;;;6.35;4.07;;;10.00;99.90;;;;;;4960940;28;20038;-84
2021/03/27 00:45:03;;;;;;;9.43;4.45;;;10.00;99.90;;;;;;4961125;28;20499;-83
2021/03/27 00:47:31;;;;;;;9.77;4.43;;;10.00;99.90;;;;;;4978144;28;20031;-84
2021/03/27 00:50:20;;;;;;;7.80;4.70;;;10.10;99.90;;;;;;4960737;28;20035;-84
2021/03/27 00:52:51;;;;;;;8.68;5.00;;;10.00;99.90;;;;;;4960709;28;20019;-83
2021/03/27 00:55:41;;;;;;;6.03;4.30;;;10.10;99.90;;;;;;4961443;28;20023;-84
2021/03/27 00:58:14;;;;;;;7.35;4.13;;;10.10;99.90;;;;;;4960683;28;20478;-84
2021/03/27 01:00:43;;;;;;;8.80;4.77;;;10.10;99.90;;;;;;4960594;28;20050;-84
2021/03/27 01:03:13;;;;;;;6.85;4.50;;;10.00;99.90;;;;;;4960577;28;20050;-84
2021/03/27 01:05:40;;;;;;;7.07;4.32;;;10.00;99.90;;;;;;4960514;28;20027;-83
2021/03/27 01:08:08;;;;;;;9.98;4.70;;;10.00;99.90;;;;;;4960413;28;20095;-83
2021/03/27 01:10:48;;;;;;;7.85;4.75;;;9.90;99.90;;;;;;4960362;28;20022;-83
2021/03/27 01:13:20;;;;;;;8.32;4.70;;;9.80;99.90;;;;;;4960589;28;20022;-84
2021/03/27 01:15:53;;;;;;;7.03;4.65;;;9.70;99.90;;;;;;4960267;28;20430;-84
2021/03/27 01:18:34;;;;;;;8.63;4.57;;;9.70;99.90;;;;;;4977356;28;20027;-83
2021/03/27 01:21:23;;;;;;;6.78;4.75;;;9.60;99.90;;;;;;4960208;28;20034;-84
2021/03/27 01:23:56;;;;;;;8.20;5.00;;;9.60;99.90;;;;;;4959518;28;20034;-85
2021/03/27 01:26:26;;;;;;;7.15;4.78;;;9.60;99.90;;;;;;4977488;28;20106;-85
2021/03/27 01:29:02;;;;;;;7.80;4.93;;;9.60;99.90;;;;;;4959954;28;20082;-84
2021/03/27 01:31:45;;;;;;;8.93;5.78;;;9.50;99.90;;;;;;4960116;28;20457;-84
2021/03/27 01:34:29;;;;;;;9.07;5.25;;;9.50;99.90;;;;;;4960050;28;20023;-84
2021/03/27 01:37:13;;;;;;;7.70;5.47;;;9.40;99.90;;;;;;4977613;28;20018;-84
2021/03/27 01:40:07;;;;;;;10.50;5.55;;;9.40;99.90;;;;;;4959703;28;20027;-84
2021/03/27 01:42:39;;;;;;;6.70;5.50;;;9.30;99.90;;;;;;4960135;28;20034;-84
2021/03/27 01:45:42;;;;;;;7.80;5.40;;;9.40;99.90;;;;;;4959914;28;20478;-83
2021/03/27 01:48:26;;;;;;;9.35;6.05;;;9.20;99.90;;;;;;4959683;28;20046;-83
2021/03/27 01:50:58;;;;;;;12.48;6.18;;;9.20;99.90;;;;;;4959724;28;20482;-83
2021/03/27 01:53:35;;;;;;;10.35;6.15;;;9.20;99.90;;;;;;4959670;28;20026;-83
2021/03/27 01:56:23;;;;;;;12.05;5.63;;;9.20;99.90;;;;;;4959704;28;20070;-83
2021/03/27 01:59:04;;;;;;;9.55;6.38;;;9.20;99.90;;;;;;4976965;28;20035;-83
2021/03/27 02:01:56;;;;;;;9.57;5.82;;;9.30;99.90;;;;;;4959547;28;20062;-83
2021/03/27 02:04:33;;;;;;;10.05;6.25;;;9.20;99.90;;;;;;4959472;28;20130;-83
2021/03/27 02:07:24;;;;;;;9.60;6.25;;;9.10;99.90;;;;;;4977113;28;20085;-83
2021/03/27 02:10:19;;;;;;;8.48;6.43;;;9.10;99.90;;;;;;4958691;28;20070;-83
2021/03/27 02:13:03;;;;;;;12.43;6.30;;;9.00;99.90;;;;;;4931876;28;20391;-82
2021/03/27 02:15:47;;;;;;;9.55;6.43;;;9.10;99.90;;;;;;4959791;28;20035;-82
2021/03/27 02:18:56;;;;;;;10.75;6.47;;;9.10;99.90;;;;;;4976760;28;20098;-82
2021/03/27 02:21:45;;;;;;;10.82;6.20;;;9.10;99.90;;;;;;4932148;29;20050;-81
2021/03/27 02:24:37;;;;;;;15.52;6.82;;;9.00;99.90;;;;;;4939904;29;20082;-81
2021/03/27 02:27:11;;;;;;;8.13;5.25;;;9.00;99.90;;;;;;4939845;29;20027;-81
2021/03/27 02:29:52;;;;;;;13.48;6.20;;;9.00;99.90;;;;;;4939813;29;20059;-80
2021/03/27 02:32:33;;;;;;;8.40;6.50;;;9.00;99.90;;;;;;4957026;29;20027;-80
2021/03/27 02:35:27;;;;;;;9.90;6.57;;;8.90;99.90;;;;;;4939709;29;20082;-80
2021/03/27 02:38:15;;;;;;;9.43;6.60;;;8.90;99.90;;;;;;4939703;29;20583;-80
2021/03/27 02:40:47;;;;;;;8.68;5.65;;;8.70;99.90;;;;;;4956815;29;20027;-80
2021/03/27 02:43:21;;;;;;;9.27;5.47;;;8.80;99.90;;;;;;4939802;29;20038;-80
2021/03/27 02:46:07;;;;;;;6.57;5.15;;;8.80;99.90;;;;;;4939602;29;20542;-80
2021/03/27 02:48:49;;;;;;;8.23;5.65;;;8.80;99.90;;;;;;4939407;29;20035;-80
2021/03/27 02:51:21;;;;;;;8.70;5.00;;;8.90;99.90;;;;;;4938817;29;20023;-80
2021/03/27 02:53:49;;;;;;;6.25;4.55;;;8.80;99.90;;;;;;4956616;29;20027;-80
2021/03/27 02:56:27;;;;;;;7.28;4.50;;;8.90;99.90;;;;;;4939526;29;20471;-82
2021/03/27 02:59:02;;;;;;;8.20;4.50;;;8.80;99.90;;;;;;4939302;29;20031;-80
2021/03/27 03:01:48;;;;;;;7.25;4.57;;;8.80;99.90;;;;;;4956518;29;20384;-80
2021/03/27 03:04:41;;;;;;;6.63;4.38;;;8.80;99.90;;;;;;4939237;29;20091;-80
2021/03/27 03:07:14;;;;;;;6.78;4.97;;;8.90;99.90;;;;;;4939144;29;20118;-80
2021/03/27 03:09:50;;;;;;;5.25;3.88;;;8.90;99.90;;;;;;4939031;29;20495;-80
2021/03/27 03:12:26;;;;;;;5.68;4.20;;;8.90;99.90;;;;;;4939093;29;20054;-80
2021/03/27 03:15:00;;;;;;;5.85;4.13;;;9.00;99.90;;;;;;4956775;29;20035;-80
2021/03/27 03:18:00;;;;;;;5.60;3.88;;;9.00;99.90;;;;;;4938854;29;20424;-80
2021/03/27 03:20:45;;;;;;;7.65;3.92;;;8.90;99.90;;;;;;4972199;28;20057;-80
2021/03/27 03:23:19;;;;;;;6.13;4.00;;;9.00;99.90;;;;;;4975348;28;20023;-80
2021/03/27 03:26:04;;;;;;;6.60;3.88;;;9.00;99.90;;;;;;4958036;28;20423;-80
2021/03/27 03:28:49;;;;;;;4.85;3.40;;;8.90;99.90;;;;;;4957941;28;20030;-80
2021/03/27 03:31:46;;;;;;;6.20;2.13;;;8.80;99.90;;;;;;4957955;28;20503;-80
2021/03/27 03:34:34;;;;;;;3.03;1.88;;;8.40;99.90;;;;;;4957916;28;20062;-79
2021/03/27 03:37:15;;;;;;;2.33;1.40;;;8.20;99.90;;;;;;4930336;28;20097;-79
2021/03/27 03:39:48;;;;;;;2.50;1.40;;;8.10;99.90;;;;;;4957780;28;20027;-80
2021/03/27 03:42:31;;;;;;;1.50;1.17;;;8.00;99.90;;;;;;4957785;28;20031;-79
2021/03/27 03:45:03;;;;;;;1.70;1.60;;;7.80;99.90;;;;;;4957735;28;20027;-79
2021/03/27 03:47:40;;;;;;;1.67;1.23;;;7.70;99.90;;;;;;4974901;28;20065;-79
2021/03/27 03:50:09;;;;;;;2.47;1.40;;;7.70;99.90;;;;;;4974995;28;20030;-79
2021/03/27 03:52:48;;;;;;;2.30;1.10;;;7.50;99.90;;;;;;4958138;28;20471;-79
2021/03/27 03:55:31;;;;;;;2.30;1.85;;;7.50;99.90;;;;;;4957589;28;20483;-79
2021/03/27 03:58:32;;;;;;;1.85;1.33;;;7.40;99.90;;;;;;4957519;28;20031;-79
2021/03/27 04:01:06;;;;;;;1.92;1.30;;;7.60;99.90;;;;;;4957547;28;20498;-79
2021/03/27 04:03:53;;;;;;;;;;;7.70;99.90;;;;;;4957799;28;20082;-79
2021/03/27 04:06:46;;;;;;;2.30;1.20;;;7.70;99.90;;;;;;4957511;28;19907;-79
2021/03/27 04:09:30;;;;;;;1.48;1.00;;;7.70;99.90;;;;;;4954281;28;20043;-79
2021/03/27 04:12:04;;;;;;;2.70;1.50;;;7.80;99.90;;;;;;4957383;28;20175;-79
2021/03/27 04:14:51;;;;;;;2.25;1.17;;;7.70;99.90;;;;;;4957462;28;20074;-80
2021/03/27 04:17:30;;;;;;;2.42;1.30;;;7.60;99.90;;;;;;4957269;28;20027;-80
2021/03/27 04:20:08;;;;;;;1.20;0.82;;;7.70;99.90;;;;;;4957132;28;20078;-80
2021/03/27 04:22:39;;;;;;;2.83;1.17;;;7.70;99.90;;;;;;4974658;28;20030;-80
2021/03/27 04:25:26;;;;;;;3.33;0.90;;;7.60;99.90;;;;;;4974891;28;20019;-80
2021/03/27 04:27:55;;;;;;;1.95;1.02;;;7.50;99.90;;;;;;4974512;28;20390;-80
2021/03/27 04:30:26;;;;;;;1.73;1.15;;;7.40;99.90;;;;;;4957246;28;20483;-81
2021/03/27 04:33:08;;;;;;;1.50;0.88;;;7.30;99.90;;;;;;4974509;28;20152;-80
2021/03/27 04:35:49;;;;;;;1.30;0.80;;;7.10;99.90;;;;;;4974768;28;20102;-80
2021/03/27 04:38:37;;;;;;;5.63;1.15;;;7.20;99.90;;;;;;4974425;28;20027;-80
2021/03/27 04:41:25;;;;;;;0.80;0.70;;;7.10;99.90;;;;;;4957173;28;20062;-80
2021/03/27 04:44:23;;;;;;;1.17;0.73;;;7.20;99.90;;;;;;4957117;28;20054;-80
2021/03/27 04:47:11;;;;;;;1.02;0.80;;;7.00;99.90;;;;;;4974732;28;20031;-80
2021/03/27 04:49:42;;;;;;;0.98;0.82;;;7.10;99.90;;;;;;4974322;28;20027;-80
2021/03/27 04:52:11;;;;;;;1.90;0.93;;;7.10;99.90;;;;;;4957045;28;20114;-80
2021/03/27 04:55:18;;;;;;;1.10;0.80;;;7.10;99.90;;;;;;4974352;28;20030;-80
2021/03/27 04:57:50;;;;;;;3.08;0.75;;;7.10;99.90;;;;;;4937215;28;20039;-80
2021/03/27 05:00:37;;;;;;;1.75;0.80;;;7.10;99.90;;;;;;4956928;28;20053;-80
2021/03/27 05:03:22;;;;;;;1.40;0.80;;;7.00;99.90;;;;;;4956912;28;20124;-80
2021/03/27 05:05:54;;;;;;;0.90;0.70;;;7.00;99.90;;;;;;4956912;28;20027;-80
2021/03/27 05:08:36;;;;;;;0.60;0.55;;;7.00;99.90;;;;;;4956750;28;20031;-80
2021/03/27 05:11:39;;;;;;;2.63;0.73;;;7.00;99.90;;;;;;4956855;28;20029;-80
2021/03/27 05:14:43;;;;;;;1.42;0.63;;;7.00;99.90;;;;;;4956820;28;20077;-80
2021/03/27 05:17:18;;;;;;;2.42;0.85;;;7.00;99.90;;;;;;4976780;28;20081;-80
2021/03/27 05:20:11;;;;;;;0.45;0.45;;;7.00;99.90;;;;;;4960114;28;20398;-79
2021/03/27 05:22:55;;;;;;;0.63;0.63;;;7.10;99.90;;;;;;4964545;28;20030;-80
2021/03/27 05:25:31;;;;;;;1.50;0.70;;;7.10;99.90;;;;;;4977499;28;20031;-81
2021/03/27 05:28:06;;;;;;;1.48;0.95;;;7.00;99.90;;;;;;4960083;28;20121;-80
2021/03/27 05:30:45;;;;;;;1.48;0.63;;;6.90;99.90;;;;;;4960066;28;20022;-80
2021/03/27 05:33:20;;;;;;;1.00;0.70;;;6.90;99.90;;;;;;4960073;28;20037;-80
2021/03/27 05:35:56;;;;;;;1.00;0.60;;;6.90;99.90;;;;;;4977307;28;20022;-80
2021/03/27 05:38:47;;;;;;;3.03;0.80;;;7.00;99.90;;;;;;4959948;28;20031;-80
2021/03/27 05:41:59;;;;;;;4.78;2.17;;;7.00;99.90;;;;;;4959909;28;20030;-80
2021/03/27 05:44:56;;;;;;;2.20;0.60;;;6.90;99.90;;;;;;4908141;28;20165;-80
2021/03/27 05:47:50;;;;;;;0.70;0.60;;;7.00;99.90;;;;;;4959725;28;20027;-80
2021/03/27 05:50:53;;;;;;;0.60;0.57;;;7.10;99.90;;;;;;4959777;28;20474;-80
2021/03/27 05:53:25;;;;;;;1.08;0.70;;;7.20;99.90;;;;;;4977019;28;20027;-80
2021/03/27 05:56:14;;;;;;;1.58;0.50;;;7.30;99.90;;;;;;4959651;28;20027;-80
2021/03/27 05:58:45;;;;;;;1.90;0.60;;;7.30;99.90;;;;;;4976961;28;20037;-81
2021/03/27 06:01:40;;;;;;;1.92;0.60;;;7.30;99.90;;;;;;4959574;28;20027;-80
2021/03/27 06:04:27;;;;;;;1.75;0.68;;;7.30;99.90;;;;;;4959545;28;20018;-81
2021/03/27 06:07:11;;;;;;;1.60;0.70;;;7.50;99.90;;;;;;4959424;28;20022;-80
2021/03/27 06:09:36;;;;;;;1.30;0.60;;;7.60;99.90;;;;;;4959364;28;20031;-81
2021/03/27 06:12:02;;;;;;;2.70;0.80;;;7.60;99.90;;;;;;4959340;28;20274;-80
2021/03/27 06:14:43;;;;;;;0.65;0.60;;;7.70;99.90;;;;;;4976625;28;20058;-80
2021/03/27 06:17:14;;;;;;;0.90;0.63;;;7.60;99.90;;;;;;4959230;28;20019;-81
2021/03/27 06:20:14;;;;;;;1.52;0.60;;;7.60;99.90;;;;;;4959031;28;20109;-80
2021/03/27 06:22:59;;;;;;;1.30;0.80;;;7.70;99.90;;;;;;4959203;28;20031;-80
2021/03/27 06:25:51;;;;;;;1.15;0.63;;;7.90;99.90;;;;;;4976587;28;20027;-80
2021/03/27 06:28:28;;;;;;;5.57;0.70;;;7.90;99.90;;;;;;4975968;28;20027;-80
2021/03/27 06:31:31;;;;;;;3.78;0.80;;;7.90;99.90;;;;;;4958929;28;20054;-80
2021/03/27 06:34:42;;;;;;;2.28;0.80;;;7.50;99.90;;;;;;4958971;28;20078;-81
2021/03/27 06:37:40;;;;;;;1.55;0.80;;;7.20;99.90;;;;;;4971316;28;20030;-80
2021/03/27 06:40:44;;;;;;;7.57;1.00;;;7.10;99.90;;;;;;4976430;28;20041;-80
2021/03/27 06:43:22;;;;;;;3.75;0.80;;;7.10;99.90;;;;;;4958754;28;20027;-80
2021/03/27 06:46:00;;;;;;;7.22;1.38;;;6.80;99.90;;;;;;4958733;28;20027;-80
2021/03/27 06:48:38;;;;;;;1.40;0.88;;;6.80;99.90;;;;;;4958505;28;20114;-80
2021/03/27 06:51:24;;;;;;;3.28;1.00;;;7.10;99.90;;;;;;4975944;28;20557;-80
2021/03/27 06:54:15;;;;;;;2.42;0.75;;;7.30;99.90;;;;;;4958566;28;20027;-80
2021/03/27 06:57:19;;;;;;;5.28;1.58;;;7.50;99.90;;;;;;4958479;28;20027;-80
2021/03/27 07:00:03;;;;;;;1.45;0.90;;;7.60;99.90;;;;;;4938797;28;20376;-80
2021/03/27 07:03:10;;;;;;;1.48;0.80;;;7.70;99.90;;;;;;4975963;28;20018;-81
2021/03/27 07:05:48;;;;;;;3.45;0.95;;;7.90;99.90;;;;;;4975967;28;20027;-81
2021/03/27 07:08:45;;;;;;;6.00;0.98;;;7.80;99.90;;;;;;4958287;28;20034;-81
2021/03/27 07:11:29;;;;;;;2.92;1.27;;;7.70;99.90;;;;;;4958086;28;20386;-81
2021/03/27 07:14:06;;;;;;;2.27;0.93;;;7.40;99.90;;;;;;4958272;28;20041;-81
2021/03/27 07:17:02;;;;;;;2.92;1.10;;;7.70;99.90;;;;;;4957988;28;20266;-82
2021/03/27 07:19:30;;;;;;;4.28;0.93;;;7.80;99.90;;;;;;4957930;28;20374;-82
2021/03/27 07:22:15;;;;;;;2.33;0.60;;;7.90;99.90;;;;;;4957945;28;20069;-82
2021/03/27 07:24:55;;;;;;;2.97;0.85;;;7.80;99.90;;;;;;4975363;28;20035;-81
2021/03/27 07:27:39;;;;;;;1.30;0.90;;;7.60;99.90;;;;;;4975337;28;20054;-81
2021/03/27 07:30:51;;;;;;;3.03;1.00;;;7.60;99.90;;;;;;4975268;28;20038;-82
2021/03/27 07:34:05;;;;;;;4.03;1.00;;;7.60;99.90;;;;;;4921642;28;20037;-81
2021/03/27 07:36:40;;;;;;;2.80;0.95;;;7.70;99.90;;;;;;4957828;28;20042;-82
2021/03/27 07:39:33;;;;;;;2.40;1.00;;;8.00;99.90;;;;;;4957485;28;20023;-82
2021/03/27 07:42:20;;;;;;;3.72;0.93;;;8.20;99.90;;;;;;4975390;28;20019;-83
2021/03/27 07:45:11;;;;;;;6.53;0.85;;;8.20;99.90;;;;;;4957718;28;20577;-82
2021/03/27 07:47:50;;;;;;;3.60;0.90;;;8.20;99.90;;;;;;4957487;28;20023;-85
2021/03/27 07:50:54;;;;;;;7.07;1.15;;;8.20;99.90;;;;;;4957677;28;20097;-84
2021/03/27 07:53:48;;;;;;;1.95;0.60;;;8.10;99.90;;;;;;4957632;28;20038;-84
2021/03/27 07:56:41;;;;;;;6.45;1.45;;;8.30;99.90;;;;;;4974874;28;20313;-85
2021/03/27 07:59:25;;;;;;;5.75;0.88;;;8.40;99.90;;;;;;4974873;28;20034;-86
2021/03/27 08:02:20;;;;;;;7.43;1.05;;;8.70;99.90;;;;;;4957530;28;20026;-85
2021/03/27 08:05:06;;;;;;;1.50;0.55;;;8.80;99.90;;;;;;4957750;28;20030;-85
2021/03/27 08:07:51;;;;;;;1.88;0.73;;;8.60;99.90;;;;;;4957398;28;20030;-84
2021/03/27 08:10:55;;;;;;;1.38;0.77;;;8.50;99.90;;;;;;4974769;28;20019;-86
2021/03/27 08:13:28;;;;;;;3.40;0.80;;;8.50;99.90;;;;;;4862167;29;20397;-83
2021/03/27 08:16:31;;;;;;;3.25;0.80;;;8.40;99.90;;;;;;4961986;28;20035;-83
2021/03/27 08:19:28;;;;;;;2.55;0.60;;;8.50;99.90;;;;;;4956972;28;20090;-83
2021/03/27 08:22:10;;;;;;;3.33;0.73;;;8.70;99.90;;;;;;4957186;28;20034;-84
2021/03/27 08:25:06;;;;;;;1.38;0.57;;;8.80;99.90;;;;;;4974528;28;20082;-84
2021/03/27 08:27:57;;;;;;;3.75;0.82;;;9.00;99.90;;;;;;4974463;28;20042;-85
2021/03/27 08:30:53;;;;;;;2.35;0.65;;;9.00;99.90;;;;;;4957207;28;20023;-85
2021/03/27 08:33:38;;;;;;;2.28;0.57;;;9.20;99.90;;;;;;4957182;28;20027;-85
2021/03/27 08:36:22;;;;;;;1.98;0.60;;;9.30;99.90;;;;;;4957197;28;20029;-85
2021/03/27 08:39:09;;;;;;;1.70;0.70;;;9.30;99.90;;;;;;4957274;28;20035;-84
2021/03/27 08:41:46;;;;;;;4.10;0.80;;;9.30;99.90;;;;;;4957098;28;20037;-84
2021/03/27 08:44:14;;;;;;;1.75;0.47;;;8.90;99.90;;;;;;4957126;28;20525;-84
2021/03/27 08:47:17;;;;;;;1.70;0.70;;;9.10;99.90;;;;;;4974384;28;20026;-85
2021/03/27 08:50:11;;;;;;;5.18;0.73;;;9.20;99.90;;;;;;4895935;28;20043;-83
2021/03/27 08:53:06;;;;;;;2.75;0.80;;;8.70;99.90;;;;;;4960976;28;20026;-83
2021/03/27 08:55:50;;;;;;;2.80;0.70;;;8.90;99.90;;;;;;4960803;28;20031;-84
2021/03/27 08:58:22;;;;;;;1.63;0.47;;;8.60;99.90;;;;;;4978106;28;20029;-85
2021/03/27 09:01:18;;;;;;;3.85;0.68;;;8.80;99.90;;;;;;4978037;28;20282;-84
2021/03/27 09:04:02;;;;;;;1.90;0.73;;;8.70;99.90;;;;;;4960570;28;20027;-84
2021/03/27 09:06:31;;;;;;;2.00;0.57;;;9.00;99.90;;;;;;4960588;28;20029;-83
2021/03/27 09:09:21;;;;;;;1.67;0.65;;;9.30;99.90;;;;;;4977756;28;20289;-87
2021/03/27 09:12:24;;;;;;;2.60;0.70;;;9.40;99.90;;;;;;4961025;28;20182;-83
2021/03/27 09:15:08;;;;;;;2.80;0.70;;;9.80;99.90;;;;;;4960332;28;20034;-82
2021/03/27 09:18:08;;;;;;;4.43;0.85;;;9.60;99.90;;;;;;4977731;28;20030;-84
2021/03/27 09:21:06;;;;;;;5.78;0.98;;;9.60;99.90;;;;;;4977384;28;20045;-83
2021/03/27 09:24:13;;;;;;;3.60;0.73;;;9.70;99.90;;;;;;4960083;28;20034;-86
2021/03/27 09:27:09;;;;;;;1.45;0.60;;;9.70;99.30;;;;;;4960181;28;20027;-82
2021/03/27 09:29:43;;;;;;;3.13;0.77;;;9.70;99.30;;;;;;4977387;28;20027;-80
2021/03/27 09:32:18;;;;;;;2.35;0.70;;;9.80;98.00;;;;;;4960108;28;20022;-85
2021/03/27 09:35:17;;;;;;;5.30;0.80;;;10.00;97.50;;;;;;4960010;28;20394;-83
2021/03/27 09:37:47;;;;;;;3.55;0.93;;;9.90;98.20;;;;;;4977256;28;20478;-84
2021/03/27 09:40:24;;;;;;;4.43;0.80;;;10.00;99.10;;;;;;4959845;28;20027;-83
2021/03/27 09:43:05;;;;;;;3.20;0.80;;;10.10;98.50;;;;;;4977541;28;20023;-85
2021/03/27 09:46:02;;;;;;;1.83;0.50;;;10.40;98.40;;;;;;4960430;28;20035;-80
2021/03/27 09:48:40;;;;;;;2.33;0.68;;;10.30;97.90;;;;;;4958986;28;20109;-84
2021/03/27 09:51:06;;;;;;;2.72;0.68;;;10.40;98.20;;;;;;4977153;28;20097;-82
2021/03/27 09:53:53;;;;;;;1.80;0.70;;;10.40;97.40;;;;;;4977075;28;20548;-83
2021/03/27 09:56:52;;;;;;;1.52;0.65;;;10.70;98.20;;;;;;4959677;28;20022;-84
2021/03/27 09:59:33;;;;;;;3.25;0.50;;;11.10;97.30;;;;;;4959728;28;20035;-83
2021/03/27 10:02:11;;;;;;;3.47;0.77;;;11.30;95.40;;;;;;4959362;28;20470;-85
2021/03/27 10:04:51;;;;;;;2.55;0.60;;;11.40;94.30;;;;;;4959547;28;20148;-85
2021/03/27 10:07:46;;;;;;;2.58;0.47;;;11.60;96.40;;;;;;4959500;28;20372;-83
2021/03/27 10:10:35;;;;;;;2.75;0.73;;;11.30;92.30;;;;;;4959427;28;20026;-82
2021/03/27 10:13:12;;;;;;;1.48;0.50;;;11.00;92.70;;;;;;4976898;28;20041;-83
2021/03/27 10:15:48;;;;;;;3.70;0.90;;;10.70;91.70;;;;;;4959284;28;20534;-82
2021/03/27 10:18:22;;;;;;;3.42;0.70;;;10.80;92.80;;;;;;4959000;28;20518;-83
2021/03/27 10:20:53;;;;;;;1.42;0.68;;;11.20;92.40;;;;;;4958975;28;20050;-83
2021/03/27 10:23:44;;;;;;;2.33;0.80;;;11.40;88.90;;;;;;4959309;28;20038;-84
2021/03/27 10:26:15;;;;;;;3.13;0.68;;;12.00;90.30;;;;;;4959148;28;20030;-85
2021/03/27 10:28:51;;;;;;;2.72;0.60;;;12.80;87.60;;;;;;4958980;28;20455;-84
2021/03/27 10:31:22;;;;;;;2.30;0.57;;;12.60;86.70;;;;;;4959085;28;20045;-85
2021/03/27 10:34:18;;;;;;;5.82;1.35;;;12.80;90.70;;;;;;4976698;28;20424;-83
2021/03/27 10:37:03;;;;;;;1.30;0.50;;;12.00;86.10;;;;;;4958965;28;20545;-83
2021/03/27 10:39:48;;;;;;;1.52;0.63;;;11.90;86.20;;;;;;4959229;28;20029;-84
2021/03/27 10:42:32;;;;;;;;;;;11.30;88.10;;;;;;4959774;28;20041;-84
2021/03/27 10:45:17;;;;;;;2.55;0.70;;;11.50;90.00;;;;;;4959390;28;19906;-85
2021/03/27 10:48:17;;;;;;;2.05;0.50;;;11.20;90.00;;;;;;4959116;28;20033;-84
2021/03/27 10:51:00;;;;;;;5.68;1.75;;;10.90;90.50;;;;;;4959174;28;20398;-81
2021/03/27 10:53:30;;;;;;;4.15;0.93;;;10.70;90.90;;;;;;4959781;28;20034;-85
2021/03/27 10:56:14;;;;;;;2.88;1.10;;;10.40;90.60;;;;;;4959716;28;20023;-82
2021/03/27 10:59:08;;;;;;;2.97;0.73;;;10.40;92.50;;;;;;4977324;28;20031;-87
2021/03/27 11:02:03;;;;;;;2.13;0.73;;;10.40;91.20;;;;;;4939650;28;20062;-84
2021/03/27 11:04:50;;;;;;;6.30;0.95;;;10.40;90.30;;;;;;4976206;28;20054;-83
2021/03/27 11:07:50;;;;;;;2.60;0.80;;;10.70;90.00;;;;;;4958560;28;20077;-85
2021/03/27 11:10:40;;;;;;;3.17;0.88;;;12.10;90.50;;;;;;4958842;28;20038;-84
2021/03/27 11:13:39;;;;;;;5.50;1.10;;;13.30;84.80;;;;;;4958343;28;20030;-85
2021/03/27 11:16:50;;;;;;;3.40;0.70;;;13.10;82.40;;;;;;4958747;28;20498;-84
2021/03/27 11:19:47;;;;;;;5.53;0.90;;;12.90;80.90;;;;;;4958333;28;20479;-84
2021/03/27 11:22:42;;;;;;;3.55;0.70;;;13.40;78.70;;;;;;4958252;28;20092;-83
2021/03/27 11:25:20;;;;;;;;;;;14.10;77.70;;;;;;4958516;28;20018;-85
2021/03/27 11:28:28;;;;;;;3.92;0.90;;;14.50;76.70;;;;;;4957972;28;20266;-86
2021/03/27 11:31:42;;;;;;;1.77;0.70;;;14.50;76.00;;;;;;4878409;29;20037;-83
2021/03/27 11:34:46;;;;;;;4.55;0.90;;;14.50;73.10;;;;;;4870573;29;20123;-85
2021/03/27 11:37:37;;;;;;;3.03;0.75;;;15.00;73.10;;;;;;4900063;29;20020;-85
2021/03/27 11:40:12;;;;;;;4.10;0.85;;;15.30;67.40;;;;;;4972568;28;20038;-83
2021/03/27 11:42:44;;;;;;;3.67;0.70;;;15.50;67.00;;;;;;4958115;28;20023;-85
2021/03/27 11:45:19;;;;;;;2.60;0.70;;;14.60;67.20;;;;;;4958172;28;20023;-85
2021/03/27 11:48:08;;;;;;;2.70;0.80;;;14.30;64.90;;;;;;4975389;28;20478;-83
2021/03/27 11:50:42;;;;;;;3.70;0.80;;;14.50;67.60;;;;;;4957916;28;20062;-85
2021/03/27 11:53:26;;;;;;;4.80;1.10;;;14.80;68.00;;;;;;4957946;28;20471;-85
2021/03/27 11:56:20;;;;;;;6.30;1.10;;;14.00;68.30;;;;;;4957866;28;20028;-82
2021/03/27 12:02:12;;;;;;;3.10;0.82;;;15.60;67.00;;;;;;4975329;28;20046;-83
2021/03/27 12:04:37;;;;;;;4.13;0.60;;;15.90;62.70;;;;;;4957712;28;20042;-84
2021/03/27 12:07:31;;;;;;;3.33;0.75;;;16.20;65.80;;;;;;4958000;28;20027;-83
2021/03/27 12:10:20;;;;;;;4.82;0.77;;;14.60;61.80;;;;;;4957490;28;20501;-86
2021/03/27 12:12:58;;;;;;;4.60;2.17;;;13.50;66.90;;;;;;4957824;28;20031;-86
2021/03/27 12:15:40;;;;;;;1.05;0.55;;;13.90;66.90;;;;;;4974869;28;20026;-86
2021/03/27 12:18:36;;;;;;;4.63;0.80;;;13.90;67.40;;;;;;4957531;28;20058;-88
2021/03/27 12:21:11;;;;;;;5.03;1.10;;;14.50;65.30;;;;;;4974683;28;20086;-84
2021/03/27 12:23:55;;;;;;;1.98;0.63;;;13.80;67.00;;;;;;4974699;28;20114;-84
2021/03/27 12:26:51;;;;;;;3.65;0.90;;;15.40;63.90;;;;;;4978511;28;20078;-82
2021/03/27 12:29:39;;;;;;;6.07;0.85;;;16.40;62.50;;;;;;4978686;28;20491;-85
2021/03/27 12:32:30;;;;;;;2.95;0.85;;;15.40;60.60;;;;;;4978816;28;20019;-85
2021/03/27 12:35:04;;;;;;;3.10;1.00;;;15.10;63.30;;;;;;4961446;28;20027;-84
2021/03/27 12:37:40;;;;;;;1.98;0.88;;;14.10;64.30;;;;;;4961278;28;20023;-85
2021/03/27 12:40:28;;;;;;;4.65;1.10;;;13.50;67.00;;;;;;4961397;28;20110;-85
2021/03/27 12:43:07;;;;;;;1.50;0.80;;;13.60;64.80;;;;;;4961174;28;20114;-85
2021/03/27 12:45:58;;;;;;;3.13;0.80;;;13.50;65.90;;;;;;4961219;28;20023;-84
2021/03/27 12:48:36;;;;;;;4.95;0.95;;;13.50;66.00;;;;;;4950759;28;20035;-84
2021/03/27 12:51:08;;;;;;;2.40;0.90;;;14.80;65.10;;;;;;4960998;28;20019;-81
2021/03/27 12:53:58;;;;;;;3.65;0.82;;;15.00;61.80;;;;;;4961076;28;20027;-86
2021/03/27 12:56:59;;;;;;;3.75;1.08;;;14.10;64.00;;;;;;4960851;28;20438;-86
2021/03/27 13:00:10;;;;;;;3.28;1.10;;;13.60;67.50;;;;;;4961062;28;20093;-86
2021/03/27 13:03:00;;;;;;;2.33;0.88;;;13.40;66.50;;;;;;4937547;28;20133;-86
2021/03/27 13:05:49;;;;;;;4.38;0.98;;;12.70;66.90;;;;;;4960775;28;20035;-86
2021/03/27 13:08:24;;;;;;;5.43;1.10;;;12.20;70.60;;;;;;4978263;28;20037;-84
2021/03/27 13:11:24;;;;;;;4.55;1.02;;;12.40;72.20;;;;;;4961616;28;20027;-84
2021/03/27 13:13:50;;;;;;;3.20;1.00;;;12.90;71.50;;;;;;4979001;28;20027;-86
2021/03/27 13:16:29;;;;;;;2.85;0.90;;;14.50;68.70;;;;;;4978685;28;20089;-86
2021/03/27 13:19:11;;;;;;;2.53;1.10;;;15.50;62.50;;;;;;4961439;28;20114;-86
2021/03/27 13:22:02;;;;;;;4.72;1.13;;;16.30;62.30;;;;;;4961524;28;20046;-86
2021/03/27 13:24:28;;;;;;;3.15;0.82;;;17.50;58.60;;;;;;4961122;28;20027;-85
2021/03/27 13:27:08;;;;;;;6.47;0.95;;;17.30;57.40;;;;;;4960907;28;20053;-85
2021/03/27 13:29:41;;;;;;;2.17;0.50;;;18.00;57.00;;;;;;4978058;28;20390;-84
2021/03/27 13:32:20;;;;;;;4.23;1.33;;;18.30;57.40;;;;;;4960461;28;20022;-84
2021/03/27 13:35:15;;;;;;;5.53;1.30;;;17.50;56.00;;;;;;4960250;28;20027;-86
2021/03/27 13:37:41;;;;;;;;;;;16.80;57.60;;;;;;4960527;28;20023;-84
2021/03/27 13:40:23;;;;;;;5.05;1.10;;;17.00;55.50;;;;;;4977511;28;19989;-85
2021/03/27 13:43:01;;;;;;;5.13;1.08;;;16.30;59.50;;;;;;4977591;28;20529;-84
2021/03/27 13:45:34;;;;;;;4.25;0.80;;;15.10;58.60;;;;;;4959978;28;20037;-85
2021/03/27 13:48:47;;;;;;;5.50;0.93;;;15.60;58.40;;;;;;4977279;28;20101;-85
2021/03/27 13:51:28;;;;;;;7.18;1.10;;;14.90;59.10;;;;;;4880016;29;20036;-87
2021/03/27 13:53:59;;;;;;;6.88;1.05;;;16.30;59.20;;;;;;4880898;29;20552;-86
2021/03/27 13:56:48;;;;;;;4.38;0.90;;;17.20;56.00;;;;;;4934484;28;20478;-85
2021/03/27 13:59:35;;;;;;;4.47;0.88;;;17.20;56.40;;;;;;4911705;28;20114;-85
2021/03/27 14:02:28;;;;;;;2.95;0.75;;;17.90;55.00;;;;;;4959798;28;20051;-85
2021/03/27 14:05:03;;;;;;;9.90;1.15;;;18.20;53.60;;;;;;4959537;28;20019;-81
2021/03/27 14:07:42;;;;;;;5.50;1.10;;;17.80;53.10;;;;;;4959651;28;20022;-85
2021/03/27 14:10:20;;;;;;;3.72;1.10;;;17.80;53.60;;;;;;4959502;28;20495;-83
2021/03/27 14:13:22;;;;;;;5.07;1.10;;;18.20;52.00;;;;;;4976929;28;20022;-84
2021/03/27 14:16:02;;;;;;;3.75;0.80;;;18.10;53.10;;;;;;4954459;28;20491;-85
2021/03/27 14:18:49;;;;;;;6.07;1.13;;;18.80;51.60;;;;;;4959375;28;20057;-82
2021/03/27 14:21:37;;;;;;;4.30;1.13;;;17.70;52.10;;;;;;4959103;28;20057;-84
2021/03/27 14:24:26;;;;;;;4.45;1.08;;;16.20;54.50;;;;;;4959212;28;20042;-87